Terminal Aerodrome Forecast
Issued by NWS Anchorage, AK

Home | Current Version | Previous Version | Text Only | Print | Product List | Glossary On
Versions: 1 2 3 4 5 6 7 8 9 10 11 12 13 14 15 16 17 18 19 20 21 22 23 24 25 26 27 28 29 30 31 32 33 34 35 36 37 38 39 40 41 42 43 44 45 46 47 48 49 50
053
FTAK31 PANC 212331
TAFANC
TAF
PANC 212331Z 2200/2306 02006KT P6SM SCT200
     FM220600 01008KT 6SM -SN BKN035 OVC050
     FM221000 01010KT 4SM -SN SCT015 OVC030
     FM221400 36008KT 1SM -SN BR SCT007 OVC015
     FM222000 34005KT 6SM -SHSN SCT025 OVC040
     FM230200 01004KT P6SM SCT040=

USA.gov is the U.S. government's official web portal to all federal, state and local government web resources and services.